createdAt,value
2018-02-10T00:00:54.728Z,0.80
2018-02-10T00:02:57.404Z,0.80
2018-02-10T00:05:00.938Z,0.70
2018-02-10T00:07:03.593Z,0.70
2018-02-10T00:09:06.368Z,0.70
2018-02-10T00:11:09.025Z,0.70
2018-02-10T00:13:12.462Z,0.70
2018-02-10T00:15:15.123Z,0.70
2018-02-10T00:17:17.771Z,0.70
2018-02-10T00:19:21.217Z,0.70
2018-02-10T00:21:23.862Z,0.70
2018-02-10T00:23:26.523Z,0.70
2018-02-10T00:25:29.202Z,0.70
2018-02-10T00:27:31.840Z,0.80
2018-02-10T00:29:34.791Z,0.80
2018-02-10T00:31:38.234Z,0.80
2018-02-10T00:33:41.633Z,0.80
2018-02-10T00:35:46.849Z,0.80
2018-02-10T00:37:49.579Z,0.80
2018-02-10T00:39:52.264Z,0.80
2018-02-10T00:41:56.395Z,0.80
2018-02-10T00:43:59.075Z,0.90
2018-02-10T00:46:01.854Z,0.90
2018-02-10T00:48:04.707Z,0.90
2018-02-10T00:50:07.555Z,0.90
2018-02-10T00:52:10.960Z,0.90
2018-02-10T00:54:13.976Z,0.90
2018-02-10T00:56:16.641Z,0.90
2018-02-10T00:58:19.316Z,0.90
2018-02-10T01:00:21.954Z,0.90
2018-02-10T01:02:27.672Z,0.90
2018-02-10T01:04:31.094Z,1.00
2018-02-10T01:06:34.504Z,1.00
2018-02-10T01:08:37.174Z,1.00
2018-02-10T01:10:39.835Z,1.00
2018-02-10T01:12:43.247Z,1.00
2018-02-10T01:14:45.912Z,1.00
2018-02-10T01:16:49.426Z,1.00
2018-02-10T01:18:52.283Z,1.00
2018-02-10T01:20:56.461Z,1.00
2018-02-10T01:22:59.117Z,1.00
2018-02-10T01:25:01.761Z,1.00
2018-02-10T01:27:04.440Z,1.00
2018-02-10T01:29:07.106Z,1.00
2018-02-10T01:31:09.774Z,1.00
2018-02-10T01:33:13.213Z,1.00
2018-02-10T01:35:16.092Z,1.00
2018-02-10T01:37:18.779Z,1.00
2018-02-10T01:39:21.470Z,1.00
2018-02-10T01:41:24.203Z,1.00
2018-02-10T01:43:26.841Z,1.00
2018-02-10T01:45:29.832Z,1.00
2018-02-10T01:47:33.531Z,1.10
2018-02-10T01:49:37.198Z,1.00
2018-02-10T01:51:39.993Z,1.00
2018-02-10T01:53:42.633Z,1.10
2018-02-10T01:55:45.294Z,1.10
2018-02-10T01:57:47.951Z,1.10
2018-02-10T01:59:52.276Z,1.10
2018-02-10T02:01:54.944Z,1.10
2018-02-10T02:03:57.607Z,1.10
2018-02-10T02:06:01.034Z,1.10
2018-02-10T02:08:03.812Z,1.10
2018-02-10T02:10:06.491Z,1.10
2018-02-10T02:12:09.188Z,1.10
2018-02-10T02:14:11.925Z,1.10
2018-02-10T02:16:14.558Z,1.10
2018-02-10T02:18:17.223Z,1.10
2018-02-10T02:20:19.874Z,1.10
2018-02-10T02:22:22.530Z,1.10
2018-02-10T02:24:25.211Z,1.20
2018-02-10T02:26:27.855Z,1.20
2018-02-10T02:28:30.537Z,1.20
2018-02-10T02:30:33.987Z,1.20
2018-02-10T02:32:36.641Z,1.20
2018-02-10T02:34:39.302Z,1.20
2018-02-10T02:36:41.983Z,1.20
2018-02-10T02:38:44.649Z,1.30
2018-02-10T02:40:47.291Z,1.30
2018-02-10T02:42:49.988Z,1.30
2018-02-10T02:44:53.391Z,1.30
2018-02-10T02:46:56.810Z,1.30
2018-02-10T02:48:59.490Z,1.30
2018-02-10T02:51:02.153Z,1.30
2018-02-10T02:53:04.798Z,1.30
2018-02-10T02:55:08.251Z,1.30
2018-02-10T02:57:10.903Z,1.30
2018-02-10T02:59:13.550Z,1.30
2018-02-10T03:01:17.010Z,1.30
2018-02-10T03:03:19.653Z,1.30
2018-02-10T03:05:22.291Z,1.30
2018-02-10T03:07:25.720Z,1.30
2018-02-10T03:09:28.354Z,1.30
2018-02-10T03:11:31.006Z,1.30
2018-02-10T03:13:33.682Z,1.30
2018-02-10T03:15:36.338Z,1.30
2018-02-10T03:17:38.989Z,1.30
2018-02-10T03:19:41.697Z,1.30
2018-02-10T03:21:44.343Z,1.30
2018-02-10T03:23:47.072Z,1.30
2018-02-10T03:25:49.728Z,1.30
2018-02-10T03:27:53.124Z,1.30
2018-02-10T03:29:55.779Z,1.20
2018-02-10T03:31:58.476Z,1.20
2018-02-10T03:34:01.141Z,1.20
2018-02-10T03:36:03.800Z,1.20
2018-02-10T03:38:06.477Z,1.20
2018-02-10T03:40:09.201Z,1.20
2018-02-10T03:42:11.891Z,1.20
2018-02-10T03:44:15.340Z,1.20
2018-02-10T03:46:17.975Z,1.20
2018-02-10T03:48:21.413Z,1.20
2018-02-10T03:50:24.087Z,1.20
2018-02-10T03:52:26.761Z,1.20
2018-02-10T03:54:29.498Z,1.20
2018-02-10T03:56:32.928Z,1.20
2018-02-10T03:58:35.610Z,1.20
2018-02-10T04:00:38.266Z,1.20
2018-02-10T04:02:40.936Z,1.20
2018-02-10T04:04:43.620Z,1.20
2018-02-10T04:06:46.268Z,1.20
2018-02-10T04:08:49.694Z,1.20
2018-02-10T04:10:52.354Z,1.20
2018-02-10T04:12:55.017Z,1.20
2018-02-10T04:14:58.482Z,1.20
2018-02-10T04:17:01.116Z,1.20
2018-02-10T04:19:03.758Z,1.20
2018-02-10T04:21:06.441Z,1.20
2018-02-10T04:23:09.831Z,1.20
2018-02-10T04:25:13.259Z,1.30
2018-02-10T04:27:15.911Z,1.30
2018-02-10T04:29:18.552Z,1.20
2018-02-10T04:31:21.237Z,1.30
2018-02-10T04:33:24.764Z,1.30
2018-02-10T04:35:27.407Z,1.30
2018-02-10T04:37:30.079Z,1.30
2018-02-10T04:39:32.735Z,1.20
2018-02-10T04:41:35.384Z,1.20
2018-02-10T04:43:38.095Z,1.00
2018-02-10T04:45:40.760Z,0.90
2018-02-10T04:47:43.413Z,0.90
2018-02-10T04:49:46.076Z,0.90
2018-02-10T04:51:48.722Z,0.80
2018-02-10T04:53:52.137Z,0.90
2018-02-10T04:55:54.818Z,0.90
2018-02-10T04:57:57.451Z,0.90
2018-02-10T05:00:00.096Z,0.90
2018-02-10T05:02:02.771Z,0.90
2018-02-10T05:04:05.428Z,0.90
2018-02-10T05:06:08.081Z,0.80
2018-02-10T05:08:10.743Z,0.70
2018-02-10T05:10:14.160Z,0.70
2018-02-10T05:12:16.812Z,0.70
2018-02-10T05:14:20.255Z,0.70
2018-02-10T05:16:23.740Z,0.70
2018-02-10T05:18:26.394Z,0.80
2018-02-10T05:20:29.068Z,0.90
2018-02-10T05:22:31.728Z,0.90
2018-02-10T05:24:35.132Z,1.00
2018-02-10T05:26:38.554Z,1.00
2018-02-10T05:28:41.200Z,1.00
2018-02-10T05:30:44.621Z,1.10
2018-02-10T05:32:47.280Z,1.10
2018-02-10T05:34:49.935Z,1.10
2018-02-10T05:36:53.359Z,1.20
2018-02-10T05:38:56.075Z,1.20
2018-02-10T05:40:58.715Z,1.20
2018-02-10T05:43:01.394Z,1.20
2018-02-10T05:45:04.058Z,1.20
2018-02-10T05:47:06.753Z,1.30
2018-02-10T05:49:09.401Z,1.30
2018-02-10T05:51:12.062Z,1.30
2018-02-10T05:53:15.525Z,1.30
2018-02-10T05:55:18.287Z,1.30
2018-02-10T05:57:20.931Z,1.30
2018-02-10T05:59:23.604Z,1.40
2018-02-10T06:01:26.258Z,1.40
2018-02-10T06:03:29.992Z,1.40
2018-02-10T06:05:32.678Z,1.40
2018-02-10T06:07:35.427Z,1.40
2018-02-10T06:09:38.851Z,1.40
2018-02-10T06:11:42.556Z,1.40
2018-02-10T06:13:45.194Z,1.40
2018-02-10T06:15:48.614Z,1.40
2018-02-10T06:17:51.283Z,1.40
2018-02-10T06:19:53.932Z,1.40
2018-02-10T06:21:57.354Z,1.40
2018-02-10T06:24:00.026Z,1.40
2018-02-10T06:26:02.696Z,1.40
2018-02-10T06:28:05.353Z,1.40
2018-02-10T06:30:08.799Z,1.40
2018-02-10T06:32:11.452Z,1.40
2018-02-10T06:34:14.086Z,1.40
2018-02-10T06:36:16.741Z,1.40
2018-02-10T06:38:21.263Z,1.50
2018-02-10T06:40:23.914Z,1.40
2018-02-10T06:42:26.583Z,1.50
2018-02-10T06:44:29.232Z,1.50
2018-02-10T06:46:32.754Z,1.50
2018-02-10T06:48:35.431Z,1.40
2018-02-10T06:50:38.072Z,1.40
2018-02-10T06:52:41.499Z,1.50
2018-02-10T06:54:44.156Z,1.50
2018-02-10T06:56:46.873Z,1.50
2018-02-10T06:58:49.551Z,1.50
2018-02-10T07:00:52.240Z,1.50
2018-02-10T07:02:54.873Z,1.50
2018-02-10T07:04:57.547Z,1.50
2018-02-10T07:07:00.189Z,1.50
2018-02-10T07:09:03.672Z,1.50
2018-02-10T07:11:06.340Z,1.50
2018-02-10T07:13:09.100Z,1.50
2018-02-10T07:15:11.741Z,1.50
2018-02-10T07:17:14.440Z,1.50
2018-02-10T07:19:17.077Z,1.50
2018-02-10T07:21:20.494Z,1.50
2018-02-10T07:23:23.167Z,1.50
2018-02-10T07:25:25.821Z,1.50
2018-02-10T07:27:29.350Z,1.50
2018-02-10T07:29:32.020Z,1.50
2018-02-10T07:31:34.678Z,1.50
2018-02-10T07:33:37.324Z,1.50
2018-02-10T07:35:39.989Z,1.50
2018-02-10T07:37:42.641Z,1.50
2018-02-10T07:39:45.276Z,1.60
2018-02-10T07:41:48.720Z,1.60
2018-02-10T07:43:51.365Z,1.60
2018-02-10T07:45:54.014Z,1.60
2018-02-10T07:47:57.453Z,1.60
2018-02-10T07:50:00.131Z,1.60
2018-02-10T07:52:02.820Z,1.60
2018-02-10T07:54:05.484Z,1.60
2018-02-10T07:56:08.139Z,1.60
2018-02-10T07:58:10.825Z,1.60
2018-02-10T08:00:13.493Z,1.60
2018-02-10T08:02:16.136Z,1.70
2018-02-10T08:04:19.539Z,1.70
2018-02-10T08:06:23.396Z,1.70
2018-02-10T08:08:26.051Z,1.70
2018-02-10T08:10:28.701Z,1.70
2018-02-10T08:12:31.372Z,1.70
2018-02-10T08:14:34.796Z,1.70
2018-02-10T08:16:37.454Z,1.70
2018-02-10T08:18:40.117Z,1.80
2018-02-10T08:20:42.780Z,1.80
2018-02-10T08:22:46.230Z,1.90
2018-02-10T08:24:48.911Z,1.90
2018-02-10T08:26:51.569Z,2.00
2018-02-10T08:28:54.232Z,2.00
2018-02-10T08:30:56.915Z,2.00
2018-02-10T08:32:59.576Z,2.00
2018-02-10T08:35:02.235Z,2.00
2018-02-10T08:37:05.665Z,2.00
2018-02-10T08:39:08.305Z,2.00
2018-02-10T08:41:11.713Z,2.00
2018-02-10T08:43:14.377Z,2.00
2018-02-10T08:45:17.791Z,2.10
2018-02-10T08:47:20.577Z,2.00
2018-02-10T08:49:23.244Z,2.10
2018-02-10T08:51:25.885Z,2.00
2018-02-10T08:53:28.528Z,2.10
2018-02-10T08:55:31.576Z,2.10
2018-02-10T08:57:34.228Z,2.10
2018-02-10T08:59:37.626Z,2.20
2018-02-10T09:01:41.074Z,2.20
2018-02-10T09:03:43.740Z,2.20
2018-02-10T09:05:46.395Z,2.30
2018-02-10T09:07:49.833Z,2.40
2018-02-10T09:09:52.572Z,2.40
2018-02-10T09:11:55.231Z,2.40
2018-02-10T09:13:57.915Z,2.40
2018-02-10T09:16:01.506Z,2.50
2018-02-10T09:18:04.176Z,2.50
2018-02-10T09:20:09.151Z,2.50
2018-02-10T09:22:12.205Z,2.50
2018-02-10T09:24:14.869Z,2.50
2018-02-10T09:26:18.878Z,2.60
2018-02-10T09:28:21.544Z,2.60
2018-02-10T09:30:24.958Z,2.60
2018-02-10T09:32:27.616Z,2.60
2018-02-10T09:34:31.062Z,2.70
2018-02-10T09:36:33.727Z,2.70
2018-02-10T09:38:36.361Z,2.70
2018-02-10T09:40:39.826Z,2.60
2018-02-10T09:42:42.468Z,2.60
2018-02-10T09:44:46.329Z,2.60
2018-02-10T09:46:49.768Z,2.70
2018-02-10T09:48:52.422Z,2.60
2018-02-10T09:50:55.082Z,2.70
2018-02-10T09:52:58.820Z,2.60
2018-02-10T09:55:02.743Z,2.60
2018-02-10T09:57:05.395Z,2.60
2018-02-10T09:59:08.114Z,2.60
2018-02-10T10:01:10.776Z,2.60
2018-02-10T10:03:13.480Z,2.60
2018-02-10T10:05:16.136Z,2.60
2018-02-10T10:07:19.160Z,2.70
2018-02-10T10:09:21.814Z,2.60
2018-02-10T10:11:24.504Z,2.70
2018-02-10T10:13:27.935Z,2.60
2018-02-10T10:15:30.619Z,2.60
2018-02-10T10:17:33.338Z,2.60
2018-02-10T10:19:36.047Z,2.60
2018-02-10T10:21:38.824Z,2.70
2018-02-10T10:23:41.791Z,2.70
2018-02-10T10:25:45.196Z,2.70
2018-02-10T10:27:47.900Z,2.70
2018-02-10T10:29:50.568Z,2.70
2018-02-10T10:31:53.345Z,2.80
2018-02-10T10:33:56.060Z,2.80
2018-02-10T10:35:58.778Z,2.90
2018-02-10T10:38:02.206Z,3.00
2018-02-10T10:40:04.880Z,3.00
2018-02-10T10:42:07.574Z,3.00
2018-02-10T10:44:10.223Z,3.00
2018-02-10T10:46:12.899Z,3.10
2018-02-10T10:48:15.661Z,3.20
2018-02-10T10:50:20.121Z,3.20
2018-02-10T10:52:23.628Z,3.20
2018-02-10T10:54:26.374Z,3.20
2018-02-10T10:56:29.101Z,3.30
2018-02-10T10:58:31.760Z,3.30
2018-02-10T11:00:34.406Z,3.30
2018-02-10T11:02:37.099Z,3.30
2018-02-10T11:04:39.763Z,3.30
2018-02-10T11:06:42.419Z,3.30
2018-02-10T11:08:45.090Z,3.30
2018-02-10T11:10:47.759Z,3.20
2018-02-10T11:12:50.408Z,3.30
2018-02-10T11:14:53.094Z,3.30
2018-02-10T11:16:56.551Z,3.20
2018-02-10T11:18:59.244Z,3.20
2018-02-10T11:21:01.914Z,3.20
2018-02-10T11:23:04.570Z,3.20
2018-02-10T11:25:07.294Z,3.20
2018-02-10T11:27:10.755Z,3.20
2018-02-10T11:29:13.406Z,3.30
2018-02-10T11:31:16.074Z,3.30
2018-02-10T11:33:18.749Z,3.30
2018-02-10T11:35:21.394Z,3.40
2018-02-10T11:37:24.821Z,3.40
2018-02-10T11:39:27.486Z,3.40
2018-02-10T11:41:30.155Z,3.40
2018-02-10T11:43:32.824Z,3.50
2018-02-10T11:45:36.366Z,3.60
2018-02-10T11:47:39.091Z,3.50
2018-02-10T11:49:41.791Z,3.50
2018-02-10T11:51:44.442Z,3.50
2018-02-10T11:53:47.889Z,3.60
2018-02-10T11:55:50.617Z,3.60
2018-02-10T11:57:54.047Z,3.70
2018-02-10T11:59:56.692Z,3.70
2018-02-10T12:02:00.166Z,3.90
2018-02-10T12:04:02.817Z,3.90
2018-02-10T12:06:05.452Z,3.70
2018-02-10T12:08:08.113Z,3.80
2018-02-10T12:10:11.671Z,4.00
2018-02-10T12:12:14.312Z,3.90
2018-02-10T12:14:16.979Z,4.10
2018-02-10T12:16:19.672Z,4.10
2018-02-10T12:18:23.028Z,4.10
2018-02-10T12:20:26.478Z,4.40
2018-02-10T12:22:29.117Z,4.40
2018-02-10T12:24:31.910Z,4.50
2018-02-10T12:26:34.985Z,4.70
2018-02-10T12:28:37.697Z,4.90
2018-02-10T12:30:40.410Z,5.30
2018-02-10T12:32:43.859Z,5.20
2018-02-10T12:34:46.495Z,5.20
2018-02-10T12:36:49.150Z,5.20
2018-02-10T12:38:52.611Z,5.00
2018-02-10T12:40:56.030Z,5.00
2018-02-10T12:42:58.702Z,5.00
2018-02-10T12:45:01.444Z,5.10
2018-02-10T12:47:04.139Z,5.10
2018-02-10T12:51:39.526Z,4.90
2018-02-10T12:53:42.934Z,4.90
2018-02-10T12:55:46.366Z,4.80
2018-02-10T12:57:49.051Z,4.80
2018-02-10T12:59:51.684Z,4.90
2018-02-10T13:01:54.424Z,4.90
2018-02-10T13:03:57.120Z,4.90
2018-02-10T13:06:00.560Z,4.70
2018-02-10T13:08:03.356Z,4.70
2018-02-10T13:10:06.025Z,4.70
2018-02-10T13:12:08.730Z,4.60
2018-02-10T13:14:11.378Z,4.60
2018-02-10T13:16:14.235Z,4.70
2018-02-10T13:18:16.910Z,4.70
2018-02-10T13:20:19.571Z,4.70
2018-02-10T13:22:22.222Z,4.70
2018-02-10T13:24:24.877Z,4.70
2018-02-10T13:26:27.566Z,4.70
2018-02-10T13:28:31.639Z,4.80
2018-02-10T13:30:34.283Z,4.80
2018-02-10T13:32:36.961Z,4.70
2018-02-10T13:34:39.697Z,4.80
2018-02-10T13:36:42.666Z,4.90
2018-02-10T13:38:45.354Z,5.00
2018-02-10T13:40:48.039Z,5.00
2018-02-10T13:42:50.714Z,5.00
2018-02-10T13:44:53.741Z,5.00
2018-02-10T13:46:56.435Z,5.10
2018-02-10T13:48:59.555Z,5.20
2018-02-10T13:51:03.170Z,5.30
2018-02-10T13:53:05.826Z,5.40
2018-02-10T13:55:08.510Z,5.50
2018-02-10T13:57:11.176Z,5.60
2018-02-10T13:59:13.837Z,5.70
2018-02-10T14:01:16.496Z,5.70
2018-02-10T14:03:19.362Z,5.50
2018-02-10T14:05:22.082Z,5.50
2018-02-10T14:07:24.783Z,5.50
2018-02-10T14:09:27.486Z,5.50
2018-02-10T14:11:30.130Z,5.60
2018-02-10T14:13:32.777Z,5.60
2018-02-10T14:15:35.657Z,5.60
2018-02-10T14:17:38.312Z,5.40
2018-02-10T14:19:41.023Z,5.30
2018-02-10T14:21:43.691Z,5.20
2018-02-10T14:23:46.349Z,5.10
2018-02-10T14:25:49.004Z,5.10
2018-02-10T14:27:51.696Z,5.00
2018-02-10T14:29:54.358Z,4.90
2018-02-10T14:31:57.000Z,4.90
2018-02-10T14:33:59.665Z,4.90
2018-02-10T14:36:02.322Z,4.80
2018-02-10T14:38:04.969Z,4.70
2018-02-10T14:40:07.687Z,4.70
2018-02-10T14:42:10.323Z,4.60
2018-02-10T14:44:12.977Z,4.60
2018-02-10T14:46:16.694Z,4.60
2018-02-10T14:48:19.360Z,4.60
2018-02-10T14:50:22.037Z,4.60
2018-02-10T14:52:24.721Z,4.60
2018-02-10T14:54:27.389Z,4.70
2018-02-10T14:56:30.048Z,4.60
2018-02-10T14:58:33.495Z,4.70
2018-02-10T15:00:36.987Z,4.70
2018-02-10T15:02:39.643Z,4.70
2018-02-10T15:04:42.333Z,4.80
2018-02-10T15:06:44.976Z,4.70
2018-02-10T15:08:48.377Z,4.80
2018-02-10T15:10:51.114Z,4.80
2018-02-10T15:12:53.858Z,4.90
2018-02-10T15:14:56.556Z,5.00
2018-02-10T15:16:59.246Z,5.10
2018-02-10T15:19:01.966Z,5.20
2018-02-10T15:21:04.930Z,5.00
2018-02-10T15:23:08.634Z,4.80
2018-02-10T15:25:12.294Z,4.60
2018-02-10T15:27:14.991Z,4.50
2018-02-10T15:29:19.122Z,4.30
2018-02-10T15:31:26.338Z,4.20
2018-02-10T15:33:41.022Z,4.20
2018-02-10T15:35:43.702Z,4.10
2018-02-10T15:37:46.594Z,4.00
2018-02-10T15:39:49.322Z,3.90
2018-02-10T15:41:52.007Z,3.90
2018-02-10T15:43:54.770Z,3.80
2018-02-10T15:45:57.427Z,3.80
2018-02-10T15:48:00.851Z,3.70
2018-02-10T15:50:04.727Z,3.60
2018-02-10T15:52:08.151Z,3.60
2018-02-10T15:54:10.923Z,3.60
2018-02-10T15:56:13.566Z,3.50
2018-02-10T15:58:17.038Z,3.50
2018-02-10T16:00:19.676Z,3.50
2018-02-10T16:02:22.422Z,3.50
2018-02-10T16:04:25.927Z,3.50
2018-02-10T16:06:28.564Z,3.40
2018-02-10T16:08:31.263Z,3.40
2018-02-10T16:10:34.702Z,3.40
2018-02-10T16:12:37.337Z,3.40
2018-02-10T16:14:40.180Z,3.30
2018-02-10T16:16:42.849Z,3.30
2018-02-10T16:18:45.517Z,3.20
2018-02-10T16:20:48.198Z,3.20
2018-02-10T16:22:50.987Z,3.10
2018-02-10T16:24:53.674Z,3.00
2018-02-10T16:26:56.330Z,3.00
2018-02-10T16:28:59.002Z,3.00
2018-02-10T16:31:01.747Z,2.90
2018-02-10T16:33:04.661Z,2.90
2018-02-10T16:35:08.156Z,2.70
2018-02-10T16:37:10.851Z,2.70
2018-02-10T16:39:13.502Z,2.70
2018-02-10T16:41:16.863Z,2.70
2018-02-10T16:43:20.527Z,2.60
2018-02-10T16:45:23.252Z,2.50
2018-02-10T16:47:25.936Z,2.50
2018-02-10T16:49:28.567Z,2.40
2018-02-10T16:51:32.052Z,2.30
2018-02-10T16:53:34.711Z,2.30
2018-02-10T16:55:37.381Z,2.30
2018-02-10T16:57:40.022Z,2.30
2018-02-10T16:59:42.688Z,2.20
2018-02-10T17:01:45.412Z,2.20
2018-02-10T17:03:48.858Z,2.20
2018-02-10T17:05:51.547Z,2.20
2018-02-10T17:07:54.198Z,2.20
2018-02-10T17:09:57.614Z,2.10
2018-02-10T17:12:00.296Z,2.00
2018-02-10T17:14:02.956Z,2.10
2018-02-10T17:16:05.654Z,2.00
2018-02-10T17:18:08.334Z,2.00
2018-02-10T17:20:10.991Z,2.00
2018-02-10T17:22:13.640Z,2.00
2018-02-10T17:24:17.060Z,2.00
2018-02-10T17:26:19.752Z,2.00
2018-02-10T17:28:22.466Z,2.00
2018-02-10T17:30:25.158Z,1.90
2018-02-10T17:32:27.886Z,1.90
2018-02-10T17:34:30.560Z,1.90
2018-02-10T17:36:33.252Z,1.90
2018-02-10T17:38:35.919Z,1.90
2018-02-10T17:40:38.719Z,1.90
2018-02-10T17:42:41.356Z,1.80
2018-02-10T17:44:44.040Z,1.80
2018-02-10T17:46:46.712Z,1.80
2018-02-10T17:48:49.414Z,1.70
2018-02-10T17:50:52.248Z,1.70
2018-02-10T17:52:54.922Z,1.70
2018-02-10T17:54:58.324Z,1.60
2018-02-10T17:57:00.982Z,1.60
2018-02-10T17:59:04.435Z,1.60
2018-02-10T18:01:07.181Z,1.60
2018-02-10T18:03:10.200Z,1.70
2018-02-10T18:05:13.448Z,1.70
2018-02-10T18:07:16.193Z,1.70
2018-02-10T18:09:18.939Z,1.60
2018-02-10T18:11:21.630Z,1.60
2018-02-10T18:13:24.287Z,1.60
2018-02-10T18:15:26.940Z,1.50
2018-02-10T18:17:29.726Z,1.40
2018-02-10T18:19:32.374Z,1.40
2018-02-10T18:21:36.548Z,1.40
2018-02-10T18:23:39.236Z,1.40
2018-02-10T18:25:41.890Z,1.40
2018-02-10T18:27:45.338Z,1.40
2018-02-10T18:29:47.993Z,1.40
2018-02-10T18:31:51.396Z,1.30
2018-02-10T18:33:54.879Z,1.30
2018-02-10T18:35:58.315Z,1.30
2018-02-10T18:38:02.008Z,1.30
2018-02-10T18:40:04.890Z,1.40
2018-02-10T18:42:07.544Z,1.40
2018-02-10T18:44:10.983Z,1.40
2018-02-10T18:46:13.619Z,1.40
2018-02-10T18:48:17.142Z,1.50
2018-02-10T18:50:19.789Z,1.50
2018-02-10T18:52:23.346Z,1.60
2018-02-10T18:54:26.095Z,1.60
2018-02-10T18:56:28.966Z,1.60
2018-02-10T18:58:31.850Z,1.60
2018-02-10T19:00:34.736Z,1.60
2018-02-10T19:02:37.424Z,1.60
2018-02-10T19:04:40.107Z,1.60
2018-02-10T19:06:42.806Z,1.60
2018-02-10T19:08:45.453Z,1.60
2018-02-10T19:10:48.103Z,1.60
2018-02-10T19:12:50.798Z,1.60
2018-02-10T19:14:53.454Z,1.70
2018-02-10T19:16:56.102Z,1.70
2018-02-10T19:18:59.628Z,1.70
2018-02-10T19:21:02.759Z,1.70
2018-02-10T19:23:05.413Z,1.70
2018-02-10T19:25:08.875Z,1.70
2018-02-10T19:27:11.545Z,1.70
2018-02-10T19:29:14.180Z,1.70
2018-02-10T19:31:16.867Z,1.70
2018-02-10T19:33:19.539Z,1.70
2018-02-10T19:35:22.202Z,1.70
2018-02-10T19:37:24.902Z,1.60
2018-02-10T19:39:28.418Z,1.60
2018-02-10T19:41:31.831Z,1.60
2018-02-10T19:43:34.511Z,1.60
2018-02-10T19:45:37.156Z,1.70
2018-02-10T19:47:40.586Z,1.70
2018-02-10T19:49:43.280Z,1.70
2018-02-10T19:51:47.062Z,1.70
2018-02-10T19:53:49.718Z,1.70
2018-02-10T19:55:53.196Z,1.80
2018-02-10T19:57:56.633Z,1.80
2018-02-10T19:59:59.319Z,1.80
2018-02-10T20:02:02.097Z,1.80
2018-02-10T20:04:04.747Z,1.70
2018-02-10T20:06:07.384Z,1.70
2018-02-10T20:08:10.040Z,1.70
2018-02-10T20:10:12.718Z,1.70
2018-02-10T20:12:15.366Z,1.70
2018-02-10T20:14:18.143Z,1.70
2018-02-10T20:16:20.792Z,1.70
2018-02-10T20:18:23.461Z,1.70
2018-02-10T20:20:27.080Z,1.70
2018-02-10T20:22:29.790Z,1.70
2018-02-10T20:24:32.474Z,1.80
2018-02-10T20:26:35.162Z,1.70
2018-02-10T20:28:37.813Z,1.70
2018-02-10T20:30:40.643Z,1.70
2018-02-10T20:32:44.099Z,1.80
2018-02-10T20:34:46.883Z,1.80
2018-02-10T20:36:50.765Z,1.80
2018-02-10T20:38:53.636Z,1.80
2018-02-10T20:40:56.291Z,1.80
2018-02-10T20:42:59.383Z,1.80
2018-02-10T20:45:02.072Z,1.80
2018-02-10T20:47:04.850Z,1.80
2018-02-10T20:49:08.737Z,1.80
2018-02-10T20:51:13.356Z,1.90
2018-02-10T20:53:16.136Z,1.90
2018-02-10T20:55:19.164Z,1.90
2018-02-10T20:57:21.907Z,2.00
2018-02-10T20:59:24.815Z,1.90
2018-02-10T21:01:28.203Z,1.90
2018-02-10T21:03:31.076Z,1.90
2018-02-10T21:05:34.614Z,1.90
2018-02-10T21:07:37.452Z,1.90
2018-02-10T21:09:41.080Z,1.90
2018-02-10T21:11:43.788Z,1.90
2018-02-10T21:13:47.223Z,1.90
2018-02-10T21:15:50.664Z,1.90
2018-02-10T21:17:53.360Z,1.90
2018-02-10T21:19:56.037Z,1.90
2018-02-10T21:21:59.455Z,1.80
2018-02-10T21:24:02.101Z,1.80
2018-02-10T21:26:05.662Z,1.80
2018-02-10T21:28:08.722Z,1.80
2018-02-10T21:30:11.429Z,1.80
2018-02-10T21:32:14.117Z,1.80
2018-02-10T21:34:16.758Z,1.80
2018-02-10T21:36:19.431Z,1.80
2018-02-10T21:38:22.128Z,1.80
2018-02-10T21:40:24.948Z,1.90
2018-02-10T21:42:28.372Z,1.90
2018-02-10T21:44:31.060Z,1.80
2018-02-10T21:46:34.832Z,1.90
2018-02-10T21:48:37.563Z,1.90
2018-02-10T21:50:40.250Z,1.90
2018-02-10T21:52:42.954Z,1.90
2018-02-10T21:54:45.702Z,1.90
2018-02-10T21:56:49.372Z,1.90
2018-02-10T21:58:52.021Z,1.90
2018-02-10T22:00:54.664Z,1.90
2018-02-10T22:02:58.111Z,1.90
2018-02-10T22:05:00.761Z,1.90
2018-02-10T22:07:03.426Z,1.90
2018-02-10T22:09:06.840Z,1.90
2018-02-10T22:11:09.526Z,1.90
2018-02-10T22:13:12.198Z,1.90
2018-02-10T22:15:14.880Z,1.90
2018-02-10T22:17:17.721Z,2.00
2018-02-10T22:19:21.129Z,1.90
2018-02-10T22:21:23.801Z,1.90
2018-02-10T22:23:26.456Z,1.90
2018-02-10T22:25:29.852Z,1.90
2018-02-10T22:27:34.440Z,1.90
2018-02-10T22:29:37.976Z,2.00
2018-02-10T22:31:40.751Z,2.00
2018-02-10T22:33:44.199Z,2.00
2018-02-10T22:35:46.861Z,2.00
2018-02-10T22:37:49.500Z,2.00
2018-02-10T22:39:52.942Z,2.00
2018-02-10T22:41:55.592Z,2.00
2018-02-10T22:43:58.261Z,2.00
2018-02-10T22:46:00.987Z,2.00
2018-02-10T22:48:03.685Z,2.00
2018-02-10T22:50:06.316Z,2.10
2018-02-10T22:52:08.993Z,2.00
2018-02-10T22:54:11.875Z,2.00
2018-02-10T22:56:14.542Z,2.10
2018-02-10T22:58:17.182Z,2.10
2018-02-10T23:00:20.838Z,2.10
2018-02-10T23:02:24.307Z,2.10
2018-02-10T23:04:26.991Z,2.10
2018-02-10T23:06:29.639Z,2.20
2018-02-10T23:08:32.321Z,2.20
2018-02-10T23:10:35.978Z,2.20
2018-02-10T23:12:38.626Z,2.20
2018-02-10T23:14:41.327Z,2.20
2018-02-10T23:16:43.977Z,2.20
2018-02-10T23:18:46.906Z,2.20
2018-02-10T23:20:50.332Z,2.20
2018-02-10T23:22:52.972Z,2.20
2018-02-10T23:24:56.369Z,2.20
2018-02-10T23:26:59.817Z,2.20
2018-02-10T23:29:02.556Z,2.20
2018-02-10T23:31:05.349Z,2.20
2018-02-10T23:33:08.038Z,2.10
2018-02-10T23:35:10.676Z,2.10
2018-02-10T23:37:14.077Z,1.90
2018-02-10T23:39:17.500Z,1.80
2018-02-10T23:41:20.179Z,1.80
2018-02-10T23:43:22.811Z,1.70
2018-02-10T23:45:26.256Z,1.50
2018-02-10T23:47:28.898Z,1.50
2018-02-10T23:49:31.547Z,1.40
2018-02-10T23:51:34.218Z,1.30
2018-02-10T23:53:36.882Z,1.20
2018-02-10T23:55:39.521Z,1.20
2018-02-10T23:57:42.259Z,1.20
2018-02-10T23:59:45.669Z,1.10
